sensor_id;sensor_type;location;lat;lon;timestamp;pressure;altitude;pressure_sealevel;temperature;humidity
11038;BME280;5572;49.540;11.932;2023-07-20T00:00:40;95226.47;;;17.49;100.00
11038;BME280;5572;49.540;11.932;2023-07-20T00:03:13;95227.66;;;17.74;100.00
11038;BME280;5572;49.540;11.932;2023-07-20T00:05:44;95216.63;;;17.93;100.00
11038;BME280;5572;49.540;11.932;2023-07-20T00:08:10;95217.44;;;17.94;100.00
11038;BME280;5572;49.540;11.932;2023-07-20T00:10:37;95221.47;;;17.77;100.00
11038;BME280;5572;49.540;11.932;2023-07-20T00:13:05;95215.59;;;17.53;100.00
11038;BME280;5572;49.540;11.932;2023-07-20T00:15:31;95228.47;;;17.30;100.00
11038;BME280;5572;49.540;11.932;2023-07-20T00:17:58;95206.94;;;17.47;100.00
11038;BME280;5572;49.540;11.932;2023-07-20T00:20:25;95210.56;;;17.32;100.00
11038;BME280;5572;49.540;11.932;2023-07-20T00:22:51;95208.88;;;17.06;100.00
11038;BME280;5572;49.540;11.932;2023-07-20T00:25:20;95198.06;;;17.31;100.00
11038;BME280;5572;49.540;11.932;2023-07-20T00:27:46;95207.44;;;17.30;100.00
11038;BME280;5572;49.540;11.932;2023-07-20T00:30:14;95198.50;;;17.15;100.00
11038;BME280;5572;49.540;11.932;2023-07-20T00:32:42;95204.06;;;16.99;100.00
11038;BME280;5572;49.540;11.932;2023-07-20T00:35:09;95197.25;;;17.09;100.00
11038;BME280;5572;49.540;11.932;2023-07-20T00:37:36;95202.22;;;17.03;100.00
11038;BME280;5572;49.540;11.932;2023-07-20T00:40:03;95213.97;;;17.07;100.00
11038;BME280;5572;49.540;11.932;2023-07-20T00:42:30;95212.97;;;17.15;100.00
11038;BME280;5572;49.540;11.932;2023-07-20T00:44:56;95217.28;;;17.16;100.00
11038;BME280;5572;49.540;11.932;2023-07-20T00:47:24;95230.50;;;17.14;100.00
11038;BME280;5572;49.540;11.932;2023-07-20T00:49:52;95220.66;;;17.10;100.00
11038;BME280;5572;49.540;11.932;2023-07-20T00:52:20;95226.81;;;17.25;100.00
11038;BME280;5572;49.540;11.932;2023-07-20T00:54:47;95232.09;;;17.60;100.00
11038;BME280;5572;49.540;11.932;2023-07-20T00:57:15;95245.94;;;17.48;100.00
11038;BME280;5572;49.540;11.932;2023-07-20T00:59:41;95262.91;;;17.16;100.00
11038;BME280;5572;49.540;11.932;2023-07-20T01:02:08;95264.94;;;17.00;100.00
11038;BME280;5572;49.540;11.932;2023-07-20T01:04:36;95248.75;;;17.10;100.00
11038;BME280;5572;49.540;11.932;2023-07-20T01:07:11;95236.09;;;17.21;100.00
11038;BME280;5572;49.540;11.932;2023-07-20T01:09:43;95250.13;;;17.20;100.00
11038;BME280;5572;49.540;11.932;2023-07-20T01:12:13;95255.25;;;17.24;100.00
11038;BME280;5572;49.540;11.932;2023-07-20T01:14:44;95261.41;;;16.99;100.00
11038;BME280;5572;49.540;11.932;2023-07-20T01:17:11;95271.75;;;16.90;100.00
11038;BME280;5572;49.540;11.932;2023-07-20T01:19:40;95274.50;;;16.90;100.00
11038;BME280;5572;49.540;11.932;2023-07-20T01:22:15;95260.19;;;16.97;100.00
11038;BME280;5572;49.540;11.932;2023-07-20T01:24:57;95249.66;;;17.36;100.00
11038;BME280;5572;49.540;11.932;2023-07-20T01:30:45;95263.84;;;17.04;100.00
11038;BME280;5572;49.540;11.932;2023-07-20T01:33:16;95249.78;;;17.02;100.00
11038;BME280;5572;49.540;11.932;2023-07-20T01:35:51;95241.13;;;17.19;100.00
11038;BME280;5572;49.540;11.932;2023-07-20T01:38:19;95242.06;;;17.08;100.00
11038;BME280;5572;49.540;11.932;2023-07-20T01:40:46;95238.34;;;16.97;100.00
11038;BME280;5572;49.540;11.932;2023-07-20T01:43:13;95231.16;;;17.08;100.00
11038;BME280;5572;49.540;11.932;2023-07-20T01:45:40;95253.16;;;16.96;100.00
11038;BME280;5572;49.540;11.932;2023-07-20T01:48:06;95273.13;;;16.62;100.00
11038;BME280;5572;49.540;11.932;2023-07-20T01:50:34;95276.13;;;16.57;100.00
11038;BME280;5572;49.540;11.932;2023-07-20T01:53:01;95289.13;;;16.44;100.00
11038;BME280;5572;49.540;11.932;2023-07-20T01:55:28;95285.09;;;16.57;100.00
11038;BME280;5572;49.540;11.932;2023-07-20T01:57:55;95289.34;;;16.55;100.00
11038;BME280;5572;49.540;11.932;2023-07-20T02:00:21;95287.13;;;16.60;100.00
11038;BME280;5572;49.540;11.932;2023-07-20T02:02:49;95286.28;;;16.75;100.00
11038;BME280;5572;49.540;11.932;2023-07-20T02:05:16;95248.28;;;16.67;100.00
11038;BME280;5572;49.540;11.932;2023-07-20T02:07:44;95235.47;;;16.52;100.00
11038;BME280;5572;49.540;11.932;2023-07-20T02:10:11;95235.28;;;16.41;100.00
11038;BME280;5572;49.540;11.932;2023-07-20T02:12:37;95212.81;;;16.67;100.00
11038;BME280;5572;49.540;11.932;2023-07-20T02:15:05;95226.03;;;16.46;100.00
11038;BME280;5572;49.540;11.932;2023-07-20T02:17:31;95245.84;;;16.28;100.00
11038;BME280;5572;49.540;11.932;2023-07-20T02:19:58;95231.47;;;16.46;100.00
11038;BME280;5572;49.540;11.932;2023-07-20T02:22:24;95222.50;;;16.64;100.00
11038;BME280;5572;49.540;11.932;2023-07-20T02:24:53;95225.75;;;16.51;100.00
11038;BME280;5572;49.540;11.932;2023-07-20T02:27:19;95241.38;;;16.35;100.00
11038;BME280;5572;49.540;11.932;2023-07-20T02:29:46;95244.28;;;16.27;100.00
11038;BME280;5572;49.540;11.932;2023-07-20T02:32:12;95235.47;;;16.52;100.00
11038;BME280;5572;49.540;11.932;2023-07-20T02:34:39;95241.31;;;16.50;100.00
11038;BME280;5572;49.540;11.932;2023-07-20T02:37:06;95228.53;;;16.73;100.00
11038;BME280;5572;49.540;11.932;2023-07-20T02:39:32;95252.66;;;16.52;100.00
11038;BME280;5572;49.540;11.932;2023-07-20T02:42:00;95233.63;;;16.56;100.00
11038;BME280;5572;49.540;11.932;2023-07-20T02:44:27;95231.72;;;16.56;100.00
11038;BME280;5572;49.540;11.932;2023-07-20T02:46:53;95226.47;;;17.08;100.00
11038;BME280;5572;49.540;11.932;2023-07-20T02:49:20;95221.94;;;17.16;100.00
11038;BME280;5572;49.540;11.932;2023-07-20T02:51:46;95220.81;;;16.98;100.00
11038;BME280;5572;49.540;11.932;2023-07-20T02:54:13;95201.50;;;17.06;100.00
11038;BME280;5572;49.540;11.932;2023-07-20T02:56:39;95210.50;;;16.88;100.00
11038;BME280;5572;49.540;11.932;2023-07-20T02:59:08;95219.53;;;16.73;100.00
11038;BME280;5572;49.540;11.932;2023-07-20T03:01:34;95225.44;;;16.75;100.00
11038;BME280;5572;49.540;11.932;2023-07-20T03:04:01;95223.50;;;16.94;100.00
11038;BME280;5572;49.540;11.932;2023-07-20T03:06:27;95223.88;;;17.15;100.00
11038;BME280;5572;49.540;11.932;2023-07-20T03:08:54;95222.59;;;17.09;100.00
11038;BME280;5572;49.540;11.932;2023-07-20T03:11:21;95212.47;;;17.10;100.00
11038;BME280;5572;49.540;11.932;2023-07-20T03:13:47;95215.53;;;16.86;100.00
11038;BME280;5572;49.540;11.932;2023-07-20T03:16:18;95220.31;;;16.92;100.00
11038;BME280;5572;49.540;11.932;2023-07-20T03:18:45;95221.84;;;16.90;100.00
11038;BME280;5572;49.540;11.932;2023-07-20T03:21:12;95233.94;;;16.70;100.00
11038;BME280;5572;49.540;11.932;2023-07-20T03:23:39;95237.66;;;16.81;100.00
11038;BME280;5572;49.540;11.932;2023-07-20T03:26:05;95240.28;;;16.77;100.00
11038;BME280;5572;49.540;11.932;2023-07-20T03:28:33;95258.75;;;16.65;100.00
11038;BME280;5572;49.540;11.932;2023-07-20T03:31:00;95276.63;;;16.28;100.00
11038;BME280;5572;49.540;11.932;2023-07-20T03:33:28;95280.50;;;16.27;100.00
11038;BME280;5572;49.540;11.932;2023-07-20T03:35:56;95168.72;;;16.65;100.00
11038;BME280;5572;49.540;11.932;2023-07-20T03:38:24;95175.63;;;16.59;100.00
11038;BME280;5572;49.540;11.932;2023-07-20T03:40:52;95169.88;;;16.64;100.00
11038;BME280;5572;49.540;11.932;2023-07-20T03:43:19;95162.25;;;16.54;100.00
11038;BME280;5572;49.540;11.932;2023-07-20T03:45:46;95170.44;;;16.54;100.00
11038;BME280;5572;49.540;11.932;2023-07-20T03:48:13;95166.50;;;16.51;100.00
11038;BME280;5572;49.540;11.932;2023-07-20T03:50:41;95177.78;;;16.31;100.00
11038;BME280;5572;49.540;11.932;2023-07-20T03:53:08;95189.31;;;16.25;100.00
11038;BME280;5572;49.540;11.932;2023-07-20T03:55:34;95194.31;;;16.23;100.00
11038;BME280;5572;49.540;11.932;2023-07-20T03:58:01;95203.13;;;16.32;100.00
11038;BME280;5572;49.540;11.932;2023-07-20T04:00:28;95207.06;;;16.34;100.00
11038;BME280;5572;49.540;11.932;2023-07-20T04:02:55;95204.06;;;16.39;100.00
11038;BME280;5572;49.540;11.932;2023-07-20T04:05:22;95214.38;;;16.87;100.00
11038;BME280;5572;49.540;11.932;2023-07-20T04:07:49;95242.88;;;16.89;100.00
11038;BME280;5572;49.540;11.932;2023-07-20T04:10:16;95251.59;;;16.76;100.00
11038;BME280;5572;49.540;11.932;2023-07-20T04:12:43;95245.03;;;16.99;100.00
11038;BME280;5572;49.540;11.932;2023-07-20T04:15:12;95252.59;;;16.87;100.00
11038;BME280;5572;49.540;11.932;2023-07-20T04:17:38;95241.38;;;16.92;100.00
11038;BME280;5572;49.540;11.932;2023-07-20T04:20:06;95234.06;;;17.18;100.00
11038;BME280;5572;49.540;11.932;2023-07-20T04:22:33;95239.78;;;17.10;100.00
11038;BME280;5572;49.540;11.932;2023-07-20T04:25:02;95221.09;;;17.12;100.00
11038;BME280;5572;49.540;11.932;2023-07-20T04:27:28;95233.34;;;17.21;100.00
11038;BME280;5572;49.540;11.932;2023-07-20T04:29:55;95228.84;;;17.28;100.00
11038;BME280;5572;49.540;11.932;2023-07-20T04:32:22;95226.16;;;17.32;100.00
11038;BME280;5572;49.540;11.932;2023-07-20T04:34:48;95222.78;;;17.38;100.00
11038;BME280;5572;49.540;11.932;2023-07-20T04:37:15;95214.09;;;17.55;100.00
11038;BME280;5572;49.540;11.932;2023-07-20T04:39:41;95217.13;;;17.50;100.00
11038;BME280;5572;49.540;11.932;2023-07-20T04:42:09;95211.88;;;17.64;100.00
11038;BME280;5572;49.540;11.932;2023-07-20T04:44:36;95216.19;;;17.65;100.00
11038;BME280;5572;49.540;11.932;2023-07-20T04:47:03;95208.72;;;17.62;100.00
11038;BME280;5572;49.540;11.932;2023-07-20T04:49:29;95203.16;;;17.55;100.00
11038;BME280;5572;49.540;11.932;2023-07-20T04:51:56;95204.44;;;17.61;100.00
11038;BME280;5572;49.540;11.932;2023-07-20T04:54:23;95198.75;;;17.73;100.00
11038;BME280;5572;49.540;11.932;2023-07-20T04:56:49;95198.13;;;17.57;100.00
11038;BME280;5572;49.540;11.932;2023-07-20T04:59:17;95194.44;;;17.72;100.00
11038;BME280;5572;49.540;11.932;2023-07-20T05:01:44;95197.31;;;17.79;100.00
11038;BME280;5572;49.540;11.932;2023-07-20T05:04:10;95190.53;;;17.73;100.00
11038;BME280;5572;49.540;11.932;2023-07-20T05:06:37;95185.41;;;17.94;100.00
11038;BME280;5572;49.540;11.932;2023-07-20T05:09:04;95181.38;;;18.73;100.00
11038;BME280;5572;49.540;11.932;2023-07-20T05:11:32;95174.53;;;18.23;100.00
11038;BME280;5572;49.540;11.932;2023-07-20T05:13:59;95162.19;;;19.05;100.00
11038;BME280;5572;49.540;11.932;2023-07-20T05:16:27;95110.72;;;20.43;100.00
11038;BME280;5572;49.540;11.932;2023-07-20T05:18:54;95051.22;;;20.78;100.00
11038;BME280;5572;49.540;11.932;2023-07-20T05:21:22;95065.66;;;19.15;100.00
11038;BME280;5572;49.540;11.932;2023-07-20T05:23:49;95033.44;;;18.59;100.00
11038;BME280;5572;49.540;11.932;2023-07-20T05:26:15;94995.53;;;19.65;100.00
11038;BME280;5572;49.540;11.932;2023-07-20T05:28:42;95031.19;;;19.11;100.00
11038;BME280;5572;49.540;11.932;2023-07-20T05:31:08;95034.81;;;19.25;100.00
11038;BME280;5572;49.540;11.932;2023-07-20T05:33:36;95034.84;;;18.86;100.00
11038;BME280;5572;49.540;11.932;2023-07-20T05:36:03;95001.13;;;19.89;100.00
11038;BME280;5572;49.540;11.932;2023-07-20T05:38:30;95022.75;;;20.01;100.00
11038;BME280;5572;49.540;11.932;2023-07-20T05:41:00;95026.13;;;20.86;100.00
11038;BME280;5572;49.540;11.932;2023-07-20T05:43:27;95110.38;;;20.48;100.00
11038;BME280;5572;49.540;11.932;2023-07-20T05:45:54;95244.41;;;19.42;100.00
11038;BME280;5572;49.540;11.932;2023-07-20T05:48:20;95229.19;;;19.91;100.00
11038;BME280;5572;49.540;11.932;2023-07-20T05:50:48;95241.47;;;22.02;100.00
11038;BME280;5572;49.540;11.932;2023-07-20T05:53:15;95338.84;;;20.27;100.00
11038;BME280;5572;49.540;11.932;2023-07-20T05:55:41;95382.97;;;19.10;100.00
11038;BME280;5572;49.540;11.932;2023-07-20T05:58:08;95373.16;;;21.01;100.00
11038;BME280;5572;49.540;11.932;2023-07-20T06:00:34;95384.59;;;21.98;100.00
11038;BME280;5572;49.540;11.932;2023-07-20T06:03:01;95511.75;;;20.60;100.00
11038;BME280;5572;49.540;11.932;2023-07-20T06:05:29;95532.78;;;21.29;100.00
11038;BME280;5572;49.540;11.932;2023-07-20T06:07:57;95595.88;;;20.75;100.00
11038;BME280;5572;49.540;11.932;2023-07-20T06:10:25;95573.84;;;22.19;100.00
11038;BME280;5572;49.540;11.932;2023-07-20T06:12:52;95640.63;;;22.05;100.00
11038;BME280;5572;49.540;11.932;2023-07-20T06:15:26;95668.53;;;22.04;100.00
11038;BME280;5572;49.540;11.932;2023-07-20T06:17:54;95602.13;;;23.74;100.00
11038;BME280;5572;49.540;11.932;2023-07-20T06:20:21;95702.97;;;21.41;100.00
11038;BME280;5572;49.540;11.932;2023-07-20T06:22:48;95684.72;;;22.80;100.00
11038;BME280;5572;49.540;11.932;2023-07-20T06:25:16;95706.00;;;22.83;100.00
11038;BME280;5572;49.540;11.932;2023-07-20T06:27:43;95767.25;;;21.62;100.00
11038;BME280;5572;49.540;11.932;2023-07-20T06:30:10;95826.63;;;20.75;100.00
11038;BME280;5572;49.540;11.932;2023-07-20T06:32:38;95777.41;;;22.41;100.00
11038;BME280;5572;49.540;11.932;2023-07-20T06:35:05;95855.22;;;20.96;100.00
11038;BME280;5572;49.540;11.932;2023-07-20T06:37:33;95903.78;;;20.41;100.00
11038;BME280;5572;49.540;11.932;2023-07-20T06:40:00;95864.25;;;21.26;100.00
11038;BME280;5572;49.540;11.932;2023-07-20T06:42:28;95774.91;;;24.41;100.00
11038;BME280;5572;49.540;11.932;2023-07-20T06:44:54;95859.47;;;22.68;100.00
11038;BME280;5572;49.540;11.932;2023-07-20T06:47:21;95884.28;;;22.29;100.00
11038;BME280;5572;49.540;11.932;2023-07-20T06:49:48;95857.56;;;23.44;100.00
11038;BME280;5572;49.540;11.932;2023-07-20T06:52:15;95849.91;;;24.19;100.00
11038;BME280;5572;49.540;11.932;2023-07-20T06:54:41;95877.97;;;23.29;100.00
11038;BME280;5572;49.540;11.932;2023-07-20T06:57:08;95935.66;;;22.97;100.00
11038;BME280;5572;49.540;11.932;2023-07-20T06:59:36;95872.41;;;24.24;100.00
11038;BME280;5572;49.540;11.932;2023-07-20T07:02:03;95998.91;;;20.75;100.00
11038;BME280;5572;49.540;11.932;2023-07-20T07:04:29;95984.81;;;22.45;100.00
11038;BME280;5572;49.540;11.932;2023-07-20T07:06:56;96022.13;;;20.99;100.00
11038;BME280;5572;49.540;11.932;2023-07-20T07:09:22;96012.78;;;22.14;100.00
11038;BME280;5572;49.540;11.932;2023-07-20T07:11:49;96054.09;;;21.11;100.00
11038;BME280;5572;49.540;11.932;2023-07-20T07:14:19;96025.59;;;22.00;100.00
11038;BME280;5572;49.540;11.932;2023-07-20T07:16:47;96059.72;;;21.66;100.00
11038;BME280;5572;49.540;11.932;2023-07-20T07:19:14;96108.59;;;20.26;100.00
11038;BME280;5572;49.540;11.932;2023-07-20T07:21:41;96086.16;;;21.48;100.00
11038;BME280;5572;49.540;11.932;2023-07-20T07:24:07;96064.91;;;22.00;100.00
11038;BME280;5572;49.540;11.932;2023-07-20T07:26:35;96087.59;;;21.16;100.00
11038;BME280;5572;49.540;11.932;2023-07-20T07:29:02;96108.50;;;21.69;100.00
11038;BME280;5572;49.540;11.932;2023-07-20T07:31:28;96026.50;;;22.83;100.00
11038;BME280;5572;49.540;11.932;2023-07-20T07:33:56;96036.59;;;22.65;100.00
11038;BME280;5572;49.540;11.932;2023-07-20T07:36:23;96044.97;;;22.40;100.00
11038;BME280;5572;49.540;11.932;2023-07-20T07:38:50;96007.34;;;22.97;100.00
11038;BME280;5572;49.540;11.932;2023-07-20T07:41:17;95996.53;;;22.35;100.00
11038;BME280;5572;49.540;11.932;2023-07-20T07:43:43;96008.06;;;22.87;100.00
11038;BME280;5572;49.540;11.932;2023-07-20T07:46:10;96067.22;;;21.98;100.00
11038;BME280;5572;49.540;11.932;2023-07-20T07:48:36;96081.22;;;21.86;100.00
11038;BME280;5572;49.540;11.932;2023-07-20T07:51:04;96076.81;;;22.08;100.00
11038;BME280;5572;49.540;11.932;2023-07-20T07:53:31;96079.38;;;21.94;100.00
11038;BME280;5572;49.540;11.932;2023-07-20T07:55:58;95965.38;;;23.78;100.00
11038;BME280;5572;49.540;11.932;2023-07-20T07:58:25;95928.25;;;23.72;100.00
11038;BME280;5572;49.540;11.932;2023-07-20T08:00:52;95980.75;;;23.79;100.00
11038;BME280;5572;49.540;11.932;2023-07-20T08:03:18;95966.53;;;23.13;100.00
11038;BME280;5572;49.540;11.932;2023-07-20T08:05:45;96079.22;;;22.13;100.00
11038;BME280;5572;49.540;11.932;2023-07-20T08:08:13;96058.22;;;22.63;100.00
11038;BME280;5572;49.540;11.932;2023-07-20T08:10:40;96151.59;;;21.17;100.00
11038;BME280;5572;49.540;11.932;2023-07-20T08:13:06;96163.63;;;21.31;100.00
11038;BME280;5572;49.540;11.932;2023-07-20T08:15:33;96148.53;;;21.67;100.00
11038;BME280;5572;49.540;11.932;2023-07-20T08:17:59;96064.91;;;22.66;100.00
11038;BME280;5572;49.540;11.932;2023-07-20T08:20:26;96179.28;;;21.05;100.00
11038;BME280;5572;49.540;11.932;2023-07-20T08:22:52;96181.72;;;21.10;100.00
11038;BME280;5572;49.540;11.932;2023-07-20T08:25:21;96094.72;;;22.54;100.00
11038;BME280;5572;49.540;11.932;2023-07-20T08:27:48;96025.47;;;23.45;100.00
11038;BME280;5572;49.540;11.932;2023-07-20T08:30:14;96021.41;;;23.29;100.00
11038;BME280;5572;49.540;11.932;2023-07-20T08:32:41;96018.09;;;23.59;100.00
11038;BME280;5572;49.540;11.932;2023-07-20T08:35:08;95960.44;;;23.47;100.00
11038;BME280;5572;49.540;11.932;2023-07-20T08:37:35;96009.81;;;23.59;100.00
11038;BME280;5572;49.540;11.932;2023-07-20T08:40:02;95989.25;;;23.50;100.00
11038;BME280;5572;49.540;11.932;2023-07-20T08:42:35;96102.75;;;23.45;100.00
11038;BME280;5572;49.540;11.932;2023-07-20T08:45:06;95890.19;;;25.07;100.00
11038;BME280;5572;49.540;11.932;2023-07-20T08:47:34;95927.75;;;24.55;100.00
11038;BME280;5572;49.540;11.932;2023-07-20T08:50:02;95936.84;;;24.63;100.00
11038;BME280;5572;49.540;11.932;2023-07-20T08:52:33;95918.44;;;23.78;100.00
11038;BME280;5572;49.540;11.932;2023-07-20T08:55:00;95970.69;;;23.44;100.00
11038;BME280;5572;49.540;11.932;2023-07-20T08:57:29;96027.25;;;23.74;100.00
11038;BME280;5572;49.540;11.932;2023-07-20T09:00:01;95970.06;;;23.74;100.00
11038;BME280;5572;49.540;11.932;2023-07-20T09:02:35;96036.81;;;22.50;100.00
11038;BME280;5572;49.540;11.932;2023-07-20T09:05:05;96134.34;;;22.75;100.00
11038;BME280;5572;49.540;11.932;2023-07-20T09:07:32;96052.09;;;23.20;100.00
11038;BME280;5572;49.540;11.932;2023-07-20T09:10:00;95947.38;;;24.12;100.00
11038;BME280;5572;49.540;11.932;2023-07-20T09:12:31;96020.03;;;24.23;100.00
11038;BME280;5572;49.540;11.932;2023-07-20T09:14:57;95912.16;;;23.78;100.00
11038;BME280;5572;49.540;11.932;2023-07-20T09:17:26;95917.47;;;24.70;100.00
11038;BME280;5572;49.540;11.932;2023-07-20T09:19:53;95992.53;;;23.73;100.00
11038;BME280;5572;49.540;11.932;2023-07-20T09:22:20;96063.03;;;22.73;100.00
11038;BME280;5572;49.540;11.932;2023-07-20T09:24:46;96059.16;;;24.42;100.00
11038;BME280;5572;49.540;11.932;2023-07-20T09:27:13;95821.00;;;25.24;100.00
11038;BME280;5572;49.540;11.932;2023-07-20T09:29:47;95926.84;;;24.17;100.00
11038;BME280;5572;49.540;11.932;2023-07-20T09:32:18;96000.00;;;23.65;100.00
11038;BME280;5572;49.540;11.932;2023-07-20T09:34:46;96041.34;;;23.08;100.00
11038;BME280;5572;49.540;11.932;2023-07-20T09:37:13;95932.47;;;24.44;100.00
11038;BME280;5572;49.540;11.932;2023-07-20T09:39:43;95926.91;;;24.37;100.00
11038;BME280;5572;49.540;11.932;2023-07-20T09:42:11;95971.19;;;23.63;100.00
11038;BME280;5572;49.540;11.932;2023-07-20T09:44:38;96108.22;;;23.38;100.00
11038;BME280;5572;49.540;11.932;2023-07-20T09:47:05;96104.59;;;23.31;100.00
11038;BME280;5572;49.540;11.932;2023-07-20T09:49:31;96067.09;;;24.44;100.00
11038;BME280;5572;49.540;11.932;2023-07-20T09:51:59;96062.06;;;24.84;100.00
11038;BME280;5572;49.540;11.932;2023-07-20T09:54:29;96090.63;;;23.13;100.00
11038;BME280;5572;49.540;11.932;2023-07-20T09:56:55;96185.63;;;23.99;100.00
11038;BME280;5572;49.540;11.932;2023-07-20T09:59:22;96174.25;;;22.55;100.00
11038;BME280;5572;49.540;11.932;2023-07-20T10:01:49;96061.28;;;23.88;100.00
11038;BME280;5572;49.540;11.932;2023-07-20T10:04:20;96043.13;;;23.87;100.00
11038;BME280;5572;49.540;11.932;2023-07-20T10:06:49;96044.06;;;23.55;100.00
11038;BME280;5572;49.540;11.932;2023-07-20T10:09:19;96076.44;;;23.11;100.00
11038;BME280;5572;49.540;11.932;2023-07-20T10:11:50;96074.91;;;23.71;100.00
11038;BME280;5572;49.540;11.932;2023-07-20T10:14:20;96077.94;;;23.52;100.00
11038;BME280;5572;49.540;11.932;2023-07-20T10:16:50;95894.94;;;25.30;100.00
11038;BME280;5572;49.540;11.932;2023-07-20T10:19:22;95924.50;;;25.51;100.00
11038;BME280;5572;49.540;11.932;2023-07-20T10:21:55;95987.28;;;24.35;100.00
11038;BME280;5572;49.540;11.932;2023-07-20T10:24:24;96075.91;;;23.92;100.00
11038;BME280;5572;49.540;11.932;2023-07-20T10:26:51;96130.75;;;23.47;100.00
11038;BME280;5572;49.540;11.932;2023-07-20T10:29:18;96144.31;;;22.86;100.00
11038;BME280;5572;49.540;11.932;2023-07-20T10:31:46;96240.09;;;22.34;100.00
11038;BME280;5572;49.540;11.932;2023-07-20T10:34:12;96258.25;;;22.39;100.00
11038;BME280;5572;49.540;11.932;2023-07-20T10:36:43;96205.03;;;22.60;100.00
11038;BME280;5572;49.540;11.932;2023-07-20T10:39:22;96239.44;;;22.73;100.00
11038;BME280;5572;49.540;11.932;2023-07-20T10:41:50;96239.13;;;23.11;100.00
11038;BME280;5572;49.540;11.932;2023-07-20T10:44:19;96179.97;;;23.42;100.00
11038;BME280;5572;49.540;11.932;2023-07-20T10:46:46;96229.41;;;24.00;100.00
11038;BME280;5572;49.540;11.932;2023-07-20T10:49:13;96124.13;;;24.90;100.00
11038;BME280;5572;49.540;11.932;2023-07-20T10:51:42;95872.00;;;25.30;100.00
11038;BME280;5572;49.540;11.932;2023-07-20T10:54:09;95885.88;;;26.19;100.00
11038;BME280;5572;49.540;11.932;2023-07-20T10:56:58;95789.53;;;25.76;100.00
11038;BME280;5572;49.540;11.932;2023-07-20T10:59:46;95932.09;;;25.23;100.00
11038;BME280;5572;49.540;11.932;2023-07-20T11:02:17;95732.09;;;26.41;100.00
11038;BME280;5572;49.540;11.932;2023-07-20T11:04:46;95817.66;;;26.35;100.00
11038;BME280;5572;49.540;11.932;2023-07-20T11:07:15;95825.34;;;26.11;100.00
11038;BME280;5572;49.540;11.932;2023-07-20T11:09:42;95887.41;;;25.34;100.00
11038;BME280;5572;49.540;11.932;2023-07-20T11:12:10;95816.06;;;26.34;100.00
11038;BME280;5572;49.540;11.932;2023-07-20T11:14:40;95590.97;;;26.16;100.00
11038;BME280;5572;49.540;11.932;2023-07-20T11:17:15;95643.34;;;26.01;100.00
11038;BME280;5572;49.540;11.932;2023-07-20T11:19:48;95701.09;;;26.06;100.00
11038;BME280;5572;49.540;11.932;2023-07-20T11:22:16;95898.44;;;25.45;100.00
11038;BME280;5572;49.540;11.932;2023-07-20T11:24:43;95856.31;;;26.60;100.00
11038;BME280;5572;49.540;11.932;2023-07-20T11:27:10;95859.59;;;27.32;100.00
11038;BME280;5572;49.540;11.932;2023-07-20T11:29:37;95862.94;;;26.18;100.00
11038;BME280;5572;49.540;11.932;2023-07-20T11:32:04;95931.28;;;26.42;100.00
11038;BME280;5572;49.540;11.932;2023-07-20T11:34:33;96021.81;;;25.53;100.00
11038;BME280;5572;49.540;11.932;2023-07-20T11:37:00;96023.25;;;26.20;100.00
11038;BME280;5572;49.540;11.932;2023-07-20T11:39:28;95979.91;;;25.26;100.00
11038;BME280;5572;49.540;11.932;2023-07-20T11:41:56;95976.91;;;26.20;100.00
11038;BME280;5572;49.540;11.932;2023-07-20T11:44:24;95926.56;;;25.05;100.00
11038;BME280;5572;49.540;11.932;2023-07-20T11:46:59;96109.25;;;23.70;100.00
11038;BME280;5572;49.540;11.932;2023-07-20T11:49:27;96135.75;;;24.38;100.00
11038;BME280;5572;49.540;11.932;2023-07-20T11:51:55;96086.78;;;24.39;100.00
11038;BME280;5572;49.540;11.932;2023-07-20T11:54:23;96048.28;;;25.61;100.00
11038;BME280;5572;49.540;11.932;2023-07-20T11:56:53;95970.81;;;24.91;100.00
11038;BME280;5572;49.540;11.932;2023-07-20T11:59:20;96073.22;;;25.89;100.00
11038;BME280;5572;49.540;11.932;2023-07-20T12:01:47;95807.94;;;26.64;100.00
11038;BME280;5572;49.540;11.932;2023-07-20T12:04:14;95734.59;;;26.25;100.00
11038;BME280;5572;49.540;11.932;2023-07-20T12:06:40;95828.75;;;25.64;100.00
11038;BME280;5572;49.540;11.932;2023-07-20T12:09:13;95753.56;;;26.30;100.00
11038;BME280;5572;49.540;11.932;2023-07-20T12:11:40;95931.66;;;25.55;100.00
11038;BME280;5572;49.540;11.932;2023-07-20T12:14:08;95857.22;;;26.46;100.00
11038;BME280;5572;49.540;11.932;2023-07-20T12:16:35;95938.03;;;26.99;100.00
11038;BME280;5572;49.540;11.932;2023-07-20T12:19:04;95864.72;;;25.71;100.00
11038;BME280;5572;49.540;11.932;2023-07-20T12:21:33;95884.50;;;25.80;100.00
11038;BME280;5572;49.540;11.932;2023-07-20T12:24:00;95905.44;;;25.88;100.00
11038;BME280;5572;49.540;11.932;2023-07-20T12:26:28;95706.78;;;27.12;100.00
11038;BME280;5572;49.540;11.932;2023-07-20T12:28:55;95655.94;;;26.86;100.00
11038;BME280;5572;49.540;11.932;2023-07-20T12:31:23;95652.69;;;26.17;100.00
11038;BME280;5572;49.540;11.932;2023-07-20T12:33:50;95455.13;;;27.75;100.00
11038;BME280;5572;49.540;11.932;2023-07-20T12:36:17;95468.13;;;26.56;100.00
11038;BME280;5572;49.540;11.932;2023-07-20T12:38:44;95532.03;;;26.13;100.00
11038;BME280;5572;49.540;11.932;2023-07-20T12:41:11;95848.22;;;26.79;100.00
11038;BME280;5572;49.540;11.932;2023-07-20T12:43:40;95583.69;;;26.96;100.00
11038;BME280;5572;49.540;11.932;2023-07-20T12:46:07;95782.88;;;26.27;100.00
11038;BME280;5572;49.540;11.932;2023-07-20T12:48:35;95938.78;;;27.84;100.00
11038;BME280;5572;49.540;11.932;2023-07-20T12:51:03;95767.31;;;27.54;100.00
11038;BME280;5572;49.540;11.932;2023-07-20T12:53:30;95917.47;;;27.74;100.00
11038;BME280;5572;49.540;11.932;2023-07-20T12:55:57;96058.59;;;25.46;100.00